Time,TemperatureF,DewpointF,PressureIn,WindDirection,WindDirectionDegrees,WindSpeedMPH,WindSpeedGustMPH,Humidity,HourlyPrecipIn,Conditions,Clouds,dailyrainin,SoftwareType,DateUTC
2013-06-26 00:00:00,67.6,65.8,29.83,South,180,4.0,11.0,94,0.00,,,-99.99,WeatherLink 5.6,2013-06-26 04:00:00,
2013-06-26 00:30:00,66.8,65.3,29.83,South,180,2.0,7.0,95,0.00,,,-99.99,WeatherLink 5.6,2013-06-26 04:30:00,
2013-06-26 01:00:00,66.5,65.3,29.83,South,180,4.0,10.0,96,0.00,,,-99.99,WeatherLink 5.6,2013-06-26 05:00:00,
2013-06-26 01:30:00,65.8,64.9,29.82,South,180,4.0,9.0,97,0.00,,,-99.99,WeatherLink 5.6,2013-06-26 05:30:00,
2013-06-26 02:00:00,65.6,64.7,29.82,South,180,4.0,10.0,97,0.00,,,-99.99,WeatherLink 5.6,2013-06-26 06:00:00,
2013-06-26 02:30:00,65.6,64.7,29.81,South,180,4.0,10.0,97,0.00,,,-99.99,WeatherLink 5.6,2013-06-26 06:30:00,
2013-06-26 03:00:00,65.4,64.8,29.80,South,180,3.0,7.0,98,0.00,,,-99.99,WeatherLink 5.6,2013-06-26 07:00:00,
2013-06-26 03:30:00,65.3,64.7,29.80,South,180,1.0,9.0,98,0.00,,,-99.99,WeatherLink 5.6,2013-06-26 07:30:00,
2013-06-26 04:00:00,65.2,64.6,29.81,South,180,0.0,4.0,98,0.00,,,-99.99,WeatherLink 5.6,2013-06-26 08:00:00,
2013-06-26 04:30:00,65.5,64.9,29.82,SSW,202,0.0,4.0,98,0.00,,,-99.99,WeatherLink 5.6,2013-06-26 08:30:00,
2013-06-26 05:00:00,66.1,64.9,29.82,SW,225,1.0,7.0,96,0.00,,,-99.99,WeatherLink 5.6,2013-06-26 09:00:00,
2013-06-26 05:30:00,66.4,64.9,29.82,SW,225,1.0,6.0,95,0.00,,,-99.99,WeatherLink 5.6,2013-06-26 09:30:00,
2013-06-26 06:00:00,65.5,64.0,29.83,South,180,0.0,4.0,95,0.00,,,-99.99,WeatherLink 5.6,2013-06-26 10:00:00,
2013-06-26 06:30:00,65.3,64.4,29.84,South,180,4.0,11.0,97,0.00,,,-99.99,WeatherLink 5.6,2013-06-26 10:30:00,
2013-06-26 07:00:00,65.6,64.7,29.83,South,180,4.0,10.0,97,0.00,,,-99.99,WeatherLink 5.6,2013-06-26 11:00:00,
2013-06-26 07:30:00,66.4,65.5,29.84,South,180,4.0,11.0,97,0.00,,,-99.99,WeatherLink 5.6,2013-06-26 11:30:00,
2013-06-26 08:00:00,67.1,66.2,29.83,South,180,3.0,10.0,97,0.00,,,-99.99,WeatherLink 5.6,2013-06-26 12:00:00,
2013-06-26 08:30:00,67.7,66.8,29.84,SSE,157,4.0,12.0,97,0.00,,,-99.99,WeatherLink 5.6,2013-06-26 12:30:00,
2013-06-26 09:00:00,67.6,66.7,29.83,South,180,5.0,10.0,97,0.00,,,-99.99,WeatherLink 5.6,2013-06-26 13:00:00,
2013-06-26 09:30:00,68.1,67.5,29.83,South,180,6.0,15.0,98,0.00,,,-99.99,WeatherLink 5.6,2013-06-26 13:30:00,
2013-06-26 10:00:00,69.2,68.3,29.84,South,180,5.0,13.0,97,0.00,,,-99.99,WeatherLink 5.6,2013-06-26 14:00:00,
2013-06-26 10:30:00,69.4,68.2,29.83,South,180,3.0,12.0,96,0.10,,,-99.99,WeatherLink 5.6,2013-06-26 14:30:00,
2013-06-26 11:00:00,69.7,68.8,29.81,South,180,5.0,15.0,97,0.10,,,-99.99,WeatherLink 5.6,2013-06-26 15:00:00,
2013-06-26 11:30:00,70.0,68.5,29.81,South,180,7.0,18.0,95,0.00,,,-99.99,WeatherLink 5.6,2013-06-26 15:30:00,
2013-06-26 12:00:00,70.4,68.6,29.83,SW,225,2.0,11.0,94,0.00,,,-99.99,WeatherLink 5.6,2013-06-26 16:00:00,
2013-06-26 12:30:00,71.6,67.9,29.83,West,270,2.0,15.0,88,0.00,,,-99.99,WeatherLink 5.6,2013-06-26 16:30:00,
2013-06-26 13:00:00,71.2,67.8,29.83,West,270,1.0,11.0,89,0.00,,,-99.99,WeatherLink 5.6,2013-06-26 17:00:00,
2013-06-26 13:30:00,72.4,69.0,29.82,West,270,0.0,3.0,89,0.00,,,-99.99,WeatherLink 5.6,2013-06-26 17:30:00,
2013-06-26 14:00:00,74.3,69.8,29.80,SW,225,0.0,4.0,86,0.00,,,-99.99,WeatherLink 5.6,2013-06-26 18:00:00,
2013-06-26 14:30:00,74.9,69.7,29.79,West,270,1.0,6.0,84,0.00,,,-99.99,WeatherLink 5.6,2013-06-26 18:30:00,
2013-06-26 15:00:00,76.6,70.7,29.77,WSW,247,1.0,6.0,82,0.00,,,-99.99,WeatherLink 5.6,2013-06-26 19:00:00,
2013-06-26 15:30:00,77.7,69.9,29.76,WNW,292,2.0,13.0,77,0.00,,,-99.99,WeatherLink 5.6,2013-06-26 19:30:00,
2013-06-26 16:00:00,78.4,71.3,29.75,West,270,1.0,9.0,79,0.00,,,-99.99,WeatherLink 5.6,2013-06-26 20:00:00,
2013-06-26 16:30:00,76.9,69.9,29.74,WSW,247,0.0,3.0,79,0.00,,,-99.99,WeatherLink 5.6,2013-06-26 20:30:00,
2013-06-26 17:00:00,70.6,66.5,29.75,West,270,4.0,21.0,87,0.02,,,-99.99,WeatherLink 5.6,2013-06-26 21:00:00,
2013-06-26 17:30:00,71.3,67.2,29.75,South,180,0.0,3.0,87,0.02,,,-99.99,WeatherLink 5.6,2013-06-26 21:30:00,
2013-06-26 18:00:00,74.1,70.3,29.72,South,180,1.0,9.0,88,0.00,,,-99.99,WeatherLink 5.6,2013-06-26 22:00:00,
2013-06-26 18:30:00,73.8,70.0,29.72,South,180,2.0,11.0,88,0.00,,,-99.99,WeatherLink 5.6,2013-06-26 22:30:00,
2013-06-26 19:00:00,72.7,68.6,29.73,South,180,7.0,16.0,87,0.00,,,-99.99,WeatherLink 5.6,2013-06-26 23:00:00,
2013-06-26 19:30:00,71.7,67.6,29.73,South,180,6.0,17.0,87,0.00,,,-99.99,WeatherLink 5.6,2013-06-26 23:30:00,
2013-06-26 20:00:00,70.5,67.7,29.73,South,180,4.0,16.0,91,0.00,,,-99.99,WeatherLink 5.6,2013-06-27 00:00:00,
2013-06-26 20:30:00,69.5,67.7,29.72,South,180,3.0,13.0,94,0.00,,,-99.99,WeatherLink 5.6,2013-06-27 00:30:00,
2013-06-26 21:00:00,69.1,67.6,29.72,South,180,4.0,14.0,95,0.00,,,-99.99,WeatherLink 5.6,2013-06-27 01:00:00,
2013-06-26 21:30:00,69.1,67.3,29.71,South,180,5.0,15.0,94,0.00,,,-99.99,WeatherLink 5.6,2013-06-27 01:30:00,
2013-06-26 22:00:00,68.6,67.1,29.71,South,180,6.0,16.0,95,0.00,,,-99.99,WeatherLink 5.6,2013-06-27 02:00:00,
2013-06-26 22:30:00,68.2,67.0,29.72,South,180,7.0,18.0,96,0.00,,,-99.99,WeatherLink 5.6,2013-06-27 02:30:00,
2013-06-26 23:00:00,68.0,66.5,29.72,South,180,4.0,14.0,95,0.00,,,-99.99,WeatherLink 5.6,2013-06-27 03:00:00,
2013-06-26 23:30:00,68.3,66.8,29.71,South,180,5.0,16.0,95,0.00,,,-99.99,WeatherLink 5.6,2013-06-27 03:30:00,